Time;durP1;ratioP1;P1;durP2;ratioP2;P2;SDS_P1;SDS_P2;PMS_P1;PMS_P2;Temp;Humidity;BMP_temperature;BMP_pressure;BME280_temperature;BME280_humidity;BME280_pressure;Samples;Min_cycle;Max_cycle;Signal;HPM_P1;HPM_P2
2023/06/03 08:19:18;;;;;;;2.83;1.10;;;;;;;;;;5128708;27;20730;-60
2023/06/03 08:21:45;;;;;;;1.63;1.07;;;;;;;;;;5126042;28;20834;-60
2023/06/03 08:24:12;;;;;;;1.60;1.40;;;;;;;;;;5138701;28;20492;-60
2023/06/03 08:26:39;;;;;;;1.50;1.10;;;;;;;;;;5138750;28;20453;-60
2023/06/03 08:29:05;;;;;;;4.47;0.83;;;;;;;;;;5138767;28;20536;-60
2023/06/03 08:31:32;;;;;;;1.70;1.00;;;;;;;;;;5125174;28;20525;-60
2023/06/03 08:33:59;;;;;;;2.07;0.93;;;;;;;;;;5125991;28;20458;-60
2023/06/03 08:36:26;;;;;;;1.00;0.70;;;;;;;;;;5131863;27;20454;-61
2023/06/03 08:38:53;;;;;;;2.60;1.00;;;;;;;;;;5132463;28;20488;-61
2023/06/03 08:41:19;;;;;;;5.30;1.00;;;;;;;;;;5137016;28;20525;-61
2023/06/03 08:43:50;;;;;;;4.20;0.90;;;;;;;;;;5125030;28;20485;-61
2023/06/03 08:46:22;;;;;;;3.50;1.10;;;;;;;;;;5137268;28;20453;-61
2023/06/03 08:48:52;;;;;;;1.53;0.77;;;;;;;;;;5138439;28;20473;-61
2023/06/03 08:51:20;;;;;;;3.10;0.93;;;;;;;;;;5137531;28;20533;-61
2023/06/03 08:53:50;;;;;;;1.20;0.80;;;;;;;;;;5137058;28;20903;-61
2023/06/03 08:56:17;;;;;;;1.70;1.00;;;;;;;;;;5137622;28;20458;-62
2023/06/03 08:58:46;;;;;;;2.70;1.17;;;;;;;;;;5128098;28;20727;-61
2023/06/03 09:01:15;;;;;;;4.20;1.10;;;;;;;;;;5130987;27;20552;-59
2023/06/03 09:03:43;;;;;;;1.50;0.90;;;;;;;;;;5126396;28;20481;-61
2023/06/03 09:06:10;;;;;;;1.93;0.83;;;;;;;;;;5128966;28;20552;-61
2023/06/03 09:08:37;;;;;;;1.43;0.90;;;;;;;;;;5121402;28;20510;-61
2023/06/03 09:11:05;;;;;;;1.30;0.87;;;;;;;;;;5134280;28;20462;-62
2023/06/03 09:13:32;;;;;;;3.43;0.87;;;;;;;;;;5129869;28;20496;-59
2023/06/03 09:15:59;;;;;;;2.20;0.90;;;;;;;;;;5133431;28;20520;-61
2023/06/03 09:18:26;;;;;;;1.40;0.90;;;;;;;;;;5136730;27;20499;-60
2023/06/03 09:20:52;;;;;;;1.10;0.73;;;;;;;;;;5137279;28;20479;-62
2023/06/03 09:23:19;;;;;;;1.87;0.80;;;;;;;;;;5133777;28;20559;-60
2023/06/03 09:25:45;;;;;;;2.67;0.80;;;;;;;;;;5134458;28;20505;-61
2023/06/03 09:28:13;;;;;;;3.20;0.90;;;;;;;;;;5137788;28;20509;-60
2023/06/03 09:30:40;;;;;;;1.63;1.10;;;;;;;;;;5121646;28;20482;-62
2023/06/03 09:33:06;;;;;;;3.33;1.00;;;;;;;;;;5115636;28;20526;-59
2023/06/03 09:35:33;;;;;;;1.53;0.63;;;;;;;;;;5119937;28;20541;-62
2023/06/03 09:38:00;;;;;;;1.80;0.90;;;;;;;;;;5122660;28;20484;-60
2023/06/03 09:40:27;;;;;;;1.50;0.90;;;;;;;;;;5113435;28;20442;-60
2023/06/03 09:42:54;;;;;;;1.80;1.10;;;;;;;;;;5121462;28;20485;-60
2023/06/03 09:45:26;;;;;;;3.83;0.93;;;;;;;;;;5115970;28;20474;-60
2023/06/03 09:47:53;;;;;;;4.20;0.90;;;;;;;;;;5112858;28;20529;-61
2023/06/03 09:50:20;;;;;;;0.97;0.70;;;;;;;;;;5121314;28;20457;-61
2023/06/03 09:52:47;;;;;;;1.47;0.77;;;;;;;;;;5123681;28;20473;-62
2023/06/03 09:55:14;;;;;;;1.40;0.90;;;;;;;;;;5113055;28;20523;-60
2023/06/03 09:57:41;;;;;;;2.20;0.70;;;;;;;;;;5117991;28;20490;-61
2023/06/03 10:00:09;;;;;;;2.90;0.80;;;;;;;;;;5122770;28;20454;-62
2023/06/03 10:02:37;;;;;;;2.80;0.90;;;;;;;;;;5122422;28;20469;-62
2023/06/03 10:05:03;;;;;;;1.60;0.80;;;;;;;;;;5123174;28;20522;-62
2023/06/03 10:07:30;;;;;;;2.60;0.73;;;;;;;;;;5108875;28;20975;-60
2023/06/03 10:10:04;;;;;;;2.10;0.83;;;;;;;;;;5113551;28;20474;-64
2023/06/03 10:12:30;;;;;;;1.13;0.60;;;;;;;;;;5115872;28;20911;-60
2023/06/03 10:14:58;;;;;;;1.00;0.70;;;;;;;;;;5121775;28;20445;-63
2023/06/03 10:17:25;;;;;;;1.77;1.10;;;;;;;;;;5113997;28;20486;-64
2023/06/03 10:19:52;;;;;;;4.33;1.30;;;;;;;;;;5110104;28;20486;-63
2023/06/03 10:22:19;;;;;;;0.90;0.60;;;;;;;;;;5114480;28;20515;-62
2023/06/03 10:24:47;;;;;;;1.20;0.70;;;;;;;;;;5109395;28;20478;-63
2023/06/03 10:27:14;;;;;;;1.67;1.13;;;;;;;;;;5114726;28;21010;-64
2023/06/03 10:29:41;;;;;;;3.17;0.90;;;;;;;;;;5120990;28;20516;-63
2023/06/03 10:32:08;;;;;;;1.50;0.90;;;;;;;;;;5116262;28;20470;-62
2023/06/03 10:34:36;;;;;;;1.63;0.80;;;;;;;;;;5119325;28;20511;-62
2023/06/03 10:37:05;;;;;;;2.30;1.00;;;;;;;;;;5118634;28;20482;-63
2023/06/03 10:39:32;;;;;;;1.10;0.80;;;;;;;;;;5118486;28;20501;-60
2023/06/03 10:41:59;;;;;;;1.40;0.80;;;;;;;;;;5118933;28;20496;-62
2023/06/03 10:44:26;;;;;;;1.10;0.70;;;;;;;;;;5122452;28;20465;-62
2023/06/03 10:46:55;;;;;;;1.20;0.90;;;;;;;;;;5114787;28;20527;-61
2023/06/03 10:49:23;;;;;;;1.50;0.80;;;;;;;;;;5117437;28;20471;-64
2023/06/03 10:51:55;;;;;;;1.53;0.90;;;;;;;;;;5115993;28;20452;-61
2023/06/03 10:54:33;;;;;;;1.87;0.80;;;;;;;;;;5106898;28;20482;-62
2023/06/03 10:57:03;;;;;;;2.10;0.97;;;;;;;;;;5119967;28;20446;-60
2023/06/03 10:59:38;;;;;;;1.40;1.00;;;;;;;;;;5112989;28;20578;-62
2023/06/03 11:02:05;;;;;;;2.10;1.03;;;;;;;;;;5104169;28;20454;-66
2023/06/03 11:04:33;;;;;;;1.57;0.90;;;;;;;;;;5104978;28;20506;-64
2023/06/03 11:07:00;;;;;;;2.10;1.10;;;;;;;;;;5120832;28;20458;-62
2023/06/03 11:09:44;;;;;;;1.40;0.70;;;;;;;;;;5118567;28;20480;-62
2023/06/03 11:12:14;;;;;;;2.40;1.03;;;;;;;;;;5116984;28;20537;-60
2023/06/03 11:14:58;;;;;;;1.50;0.87;;;;;;;;;;5116143;28;20489;-61
2023/06/03 11:17:25;;;;;;;2.60;0.80;;;;;;;;;;5119363;28;20580;-60
2023/06/03 11:19:54;;;;;;;1.70;1.00;;;;;;;;;;5122210;28;20505;-62
2023/06/03 11:22:41;;;;;;;2.93;1.20;;;;;;;;;;5121930;28;20482;-62
2023/06/03 11:25:09;;;;;;;1.57;0.83;;;;;;;;;;5109450;28;20939;-61
2023/06/03 11:27:37;;;;;;;1.30;1.10;;;;;;;;;;5114310;28;20476;-61
2023/06/03 11:30:07;;;;;;;2.70;1.30;;;;;;;;;;5109195;28;20452;-62
2023/06/03 11:32:33;;;;;;;2.80;1.00;;;;;;;;;;5120678;28;20517;-61
2023/06/03 11:35:19;;;;;;;1.33;0.97;;;;;;;;;;5121358;28;20775;-61
2023/06/03 11:37:52;;;;;;;2.87;1.03;;;;;;;;;;5114946;28;20450;-63
2023/06/03 11:40:19;;;;;;;1.13;0.73;;;;;;;;;;5119928;28;20454;-62
2023/06/03 11:45:42;;;;;;;1.20;0.80;;;;;;;;;;5138419;27;20515;-61
2023/06/03 11:48:11;;;;;;;1.70;0.80;;;;;;;;;;5138286;27;20460;-63
2023/06/03 11:50:47;;;;;;;4.40;0.87;;;;;;;;;;5126345;28;20454;-61
2023/06/03 11:53:35;;;;;;;1.40;0.97;;;;;;;;;;5135421;28;20541;-62
2023/06/03 11:56:02;;;;;;;1.20;0.90;;;;;;;;;;5120341;27;20467;-62
2023/06/03 11:58:28;;;;;;;1.03;0.60;;;;;;;;;;5121628;28;20468;-60
2023/06/03 12:01:05;;;;;;;2.17;0.80;;;;;;;;;;5130925;28;20461;-61
2023/06/03 12:03:31;;;;;;;2.20;0.90;;;;;;;;;;5133778;27;20524;-63
2023/06/03 12:05:59;;;;;;;1.50;1.10;;;;;;;;;;5131245;27;20486;-62
2023/06/03 12:08:27;;;;;;;2.10;1.17;;;;;;;;;;5128514;28;20883;-61
2023/06/03 12:10:54;;;;;;;1.20;0.87;;;;;;;;;;5134776;28;20445;-62
2023/06/03 12:13:20;;;;;;;1.47;1.00;;;;;;;;;;5136479;27;20454;-61
2023/06/03 12:15:47;;;;;;;1.70;1.10;;;;;;;;;;5136879;28;20488;-62
2023/06/03 12:18:16;;;;;;;1.20;0.83;;;;;;;;;;5134278;27;20444;-59
2023/06/03 12:20:44;;;;;;;2.10;1.00;;;;;;;;;;5135465;28;20517;-62
2023/06/03 12:23:11;;;;;;;1.20;0.70;;;;;;;;;;5135291;27;20525;-60
2023/06/03 12:25:38;;;;;;;2.60;1.00;;;;;;;;;;5135543;28;20484;-61
2023/06/03 12:28:20;;;;;;;1.00;0.70;;;;;;;;;;5133410;27;20522;-60
2023/06/03 12:30:48;;;;;;;4.00;0.87;;;;;;;;;;5134602;28;20468;-61
2023/06/03 12:33:17;;;;;;;2.37;0.90;;;;;;;;;;5128327;27;20459;-63
2023/06/03 12:35:53;;;;;;;2.80;0.83;;;;;;;;;;5132111;28;20461;-63
2023/06/03 12:38:21;;;;;;;1.20;0.90;;;;;;;;;;5129320;28;20446;-60
2023/06/03 12:40:48;;;;;;;1.40;0.90;;;;;;;;;;5129259;28;20453;-65
2023/06/03 12:43:22;;;;;;;1.03;0.70;;;;;;;;;;5128653;28;20449;-63
2023/06/03 12:45:49;;;;;;;1.83;0.90;;;;;;;;;;5136611;28;20489;-63
2023/06/03 12:48:30;;;;;;;1.37;0.90;;;;;;;;;;5130425;27;20453;-61
2023/06/03 12:50:59;;;;;;;1.87;0.70;;;;;;;;;;5132387;27;20478;-61
2023/06/03 12:53:27;;;;;;;2.10;0.70;;;;;;;;;;5131035;28;20453;-63
2023/06/03 12:55:54;;;;;;;1.20;0.67;;;;;;;;;;5122381;27;20450;-62
2023/06/03 12:58:22;;;;;;;1.20;0.80;;;;;;;;;;5105416;28;20469;-62
2023/06/03 13:00:48;;;;;;;3.93;1.00;;;;;;;;;;5112012;28;20467;-65
2023/06/03 13:03:16;;;;;;;5.80;1.07;;;;;;;;;;5096010;28;20455;-61
2023/06/03 13:05:43;;;;;;;1.10;0.70;;;;;;;;;;5100685;28;20486;-63
2023/06/03 13:08:12;;;;;;;2.17;0.70;;;;;;;;;;5098892;28;20478;-63
2023/06/03 13:10:39;;;;;;;3.03;2.30;;;;;;;;;;5083700;28;20459;-62
2023/06/03 13:13:05;;;;;;;4.20;0.70;;;;;;;;;;5100024;28;20443;-61
2023/06/03 13:15:31;;;;;;;1.60;0.90;;;;;;;;;;5096310;28;20575;-61
2023/06/03 13:17:58;;;;;;;4.97;0.90;;;;;;;;;;5090945;28;20507;-61
2023/06/03 13:20:25;;;;;;;1.53;0.93;;;;;;;;;;5089981;28;20511;-61
2023/06/03 13:22:53;;;;;;;3.73;0.90;;;;;;;;;;5095498;28;20884;-62
2023/06/03 13:25:19;;;;;;;1.40;1.00;;;;;;;;;;5098079;28;20542;-60
2023/06/03 13:27:46;;;;;;;2.87;1.10;;;;;;;;;;5091713;28;20484;-62
2023/06/03 13:30:12;;;;;;;1.17;1.00;;;;;;;;;;5092233;28;20493;-65
2023/06/03 13:32:39;;;;;;;1.17;0.80;;;;;;;;;;5097110;28;20479;-62
2023/06/03 13:35:06;;;;;;;1.30;1.10;;;;;;;;;;5101809;28;20574;-62
2023/06/03 13:37:32;;;;;;;1.37;1.00;;;;;;;;;;5100052;28;20991;-64
2023/06/03 13:40:00;;;;;;;2.73;0.90;;;;;;;;;;5101278;28;20522;-63
2023/06/03 13:42:27;;;;;;;1.20;0.80;;;;;;;;;;5096537;28;20484;-64
2023/06/03 13:44:53;;;;;;;1.43;1.00;;;;;;;;;;5100295;28;20569;-63
2023/06/03 13:47:19;;;;;;;1.67;1.07;;;;;;;;;;5091631;28;20466;-64
2023/06/03 13:49:46;;;;;;;2.03;0.80;;;;;;;;;;5088507;28;20531;-63
2023/06/03 13:52:12;;;;;;;1.70;1.07;;;;;;;;;;5085736;28;20892;-60
2023/06/03 13:54:39;;;;;;;3.43;1.63;;;;;;;;;;5099052;28;20478;-61
2023/06/03 13:57:08;;;;;;;2.80;1.03;;;;;;;;;;5100266;28;20455;-63
2023/06/03 13:59:35;;;;;;;3.00;0.90;;;;;;;;;;5099189;28;20471;-62
2023/06/03 14:02:01;;;;;;;1.23;0.97;;;;;;;;;;5101086;28;20530;-65
2023/06/03 14:04:38;;;;;;;4.63;0.80;;;;;;;;;;5087553;28;20491;-63
2023/06/03 14:07:05;;;;;;;1.60;0.90;;;;;;;;;;5100424;28;20514;-63
2023/06/03 14:09:32;;;;;;;4.20;1.23;;;;;;;;;;5101421;28;20451;-62
2023/06/03 14:11:59;;;;;;;1.53;1.33;;;;;;;;;;5098601;28;20474;-64
2023/06/03 14:14:27;;;;;;;1.27;1.10;;;;;;;;;;5100087;28;20447;-63
2023/06/03 14:16:54;;;;;;;1.43;0.97;;;;;;;;;;5101075;28;20490;-62
2023/06/03 14:19:20;;;;;;;1.30;1.00;;;;;;;;;;5093683;28;21019;-64
2023/06/03 14:21:47;;;;;;;2.40;1.10;;;;;;;;;;5101281;28;20478;-63
2023/06/03 14:24:13;;;;;;;6.83;1.30;;;;;;;;;;5101589;28;20534;-62
2023/06/03 14:26:39;;;;;;;1.47;1.13;;;;;;;;;;5090536;28;20526;-64
2023/06/03 14:29:07;;;;;;;7.23;1.00;;;;;;;;;;5092431;28;20463;-62
2023/06/03 14:31:35;;;;;;;7.20;0.90;;;;;;;;;;5097708;28;20532;-62
2023/06/03 14:34:01;;;;;;;1.13;0.77;;;;;;;;;;5102061;28;20716;-63
2023/06/03 14:36:28;;;;;;;3.30;1.10;;;;;;;;;;5095404;28;20552;-63
2023/06/03 14:38:54;;;;;;;2.37;1.10;;;;;;;;;;5101148;28;20471;-64
2023/06/03 14:41:20;;;;;;;1.10;0.90;;;;;;;;;;5095283;28;20547;-62
2023/06/03 14:43:47;;;;;;;2.03;1.30;;;;;;;;;;5096037;28;20530;-62
2023/06/03 14:46:13;;;;;;;2.10;1.00;;;;;;;;;;5092939;28;20899;-64
2023/06/03 14:48:41;;;;;;;3.00;0.93;;;;;;;;;;5090634;28;20529;-61
2023/06/03 14:51:07;;;;;;;2.70;1.00;;;;;;;;;;5094196;28;20489;-62
2023/06/03 14:53:34;;;;;;;1.83;1.30;;;;;;;;;;5095331;28;20461;-63
2023/06/03 14:56:00;;;;;;;2.93;1.40;;;;;;;;;;5095300;28;20486;-62
2023/06/03 14:58:27;;;;;;;2.70;1.10;;;;;;;;;;5099250;28;20451;-60
2023/06/03 15:00:53;;;;;;;2.00;1.10;;;;;;;;;;5097764;28;20526;-61
2023/06/03 15:03:20;;;;;;;1.70;1.00;;;;;;;;;;5099799;28;20834;-62
2023/06/03 15:05:48;;;;;;;1.83;1.20;;;;;;;;;;5097402;28;20497;-62
2023/06/03 15:08:14;;;;;;;1.83;1.23;;;;;;;;;;5097713;28;20519;-61
2023/06/03 15:10:41;;;;;;;3.50;1.10;;;;;;;;;;5095510;28;20503;-60
2023/06/03 15:13:07;;;;;;;2.00;1.23;;;;;;;;;;5096531;28;20519;-62
2023/06/03 15:15:33;;;;;;;1.63;0.83;;;;;;;;;;5098689;28;20458;-61
2023/06/03 15:18:00;;;;;;;1.50;1.10;;;;;;;;;;5096873;28;20490;-63
2023/06/03 15:20:27;;;;;;;1.57;1.20;;;;;;;;;;5090706;28;20451;-62
2023/06/03 15:22:54;;;;;;;1.67;1.10;;;;;;;;;;5090671;28;20489;-61
2023/06/03 15:25:21;;;;;;;1.73;1.00;;;;;;;;;;5100258;28;20487;-61
2023/06/03 15:27:47;;;;;;;3.33;0.80;;;;;;;;;;5098818;28;20470;-62
2023/06/03 15:30:17;;;;;;;1.87;0.90;;;;;;;;;;5089162;28;21111;-62
2023/06/03 15:32:43;;;;;;;1.00;0.80;;;;;;;;;;5097271;28;20455;-60
2023/06/03 15:35:09;;;;;;;1.37;1.10;;;;;;;;;;5097560;28;20449;-64
2023/06/03 15:37:36;;;;;;;1.57;1.27;;;;;;;;;;5094099;28;20470;-62
2023/06/03 15:40:05;;;;;;;1.10;0.97;;;;;;;;;;5099441;28;20554;-63
2023/06/03 15:42:31;;;;;;;1.20;1.00;;;;;;;;;;5098283;28;20462;-63
2023/06/03 15:44:58;;;;;;;1.87;1.07;;;;;;;;;;5098408;28;20491;-64
2023/06/03 15:47:24;;;;;;;1.57;1.30;;;;;;;;;;5093904;28;20487;-63
2023/06/03 15:49:50;;;;;;;1.60;0.90;;;;;;;;;;5095063;28;20476;-65
2023/06/03 15:52:17;;;;;;;2.50;1.30;;;;;;;;;;5099492;28;20510;-63
2023/06/03 15:54:43;;;;;;;1.30;0.90;;;;;;;;;;5098896;28;20481;-65
2023/06/03 15:57:11;;;;;;;3.20;1.20;;;;;;;;;;5098885;28;20558;-65
2023/06/03 15:59:38;;;;;;;1.53;1.03;;;;;;;;;;5098453;28;20489;-62
2023/06/03 16:02:04;;;;;;;1.50;1.00;;;;;;;;;;5093533;28;20456;-65
2023/06/03 16:04:34;;;;;;;1.30;0.90;;;;;;;;;;5094925;28;20459;-62
2023/06/03 16:07:03;;;;;;;2.00;1.30;;;;;;;;;;5100753;28;20442;-65
2023/06/03 16:09:29;;;;;;;3.60;1.30;;;;;;;;;;5103134;28;20459;-66
2023/06/03 16:11:55;;;;;;;1.73;1.30;;;;;;;;;;5104444;28;20484;-66
2023/06/03 16:14:23;;;;;;;1.73;1.30;;;;;;;;;;5092934;28;21121;-63
2023/06/03 16:16:50;;;;;;;1.33;1.07;;;;;;;;;;5093571;28;20650;-64
2023/06/03 16:19:16;;;;;;;1.30;1.00;;;;;;;;;;5087331;28;20520;-66
2023/06/03 16:21:44;;;;;;;3.87;1.17;;;;;;;;;;5098169;28;20490;-63
2023/06/03 16:24:11;;;;;;;2.00;1.30;;;;;;;;;;5096421;28;20475;-64
2023/06/03 16:26:42;;;;;;;1.97;1.10;;;;;;;;;;5099783;28;20481;-62
2023/06/03 16:29:08;;;;;;;1.43;1.03;;;;;;;;;;5096538;28;20446;-63
2023/06/03 16:31:36;;;;;;;1.87;1.33;;;;;;;;;;5101639;28;20479;-63
2023/06/03 16:34:04;;;;;;;1.47;1.03;;;;;;;;;;5103897;28;20547;-63
2023/06/03 16:36:30;;;;;;;1.87;1.00;;;;;;;;;;5099337;28;20514;-64
2023/06/03 16:38:57;;;;;;;2.90;1.10;;;;;;;;;;5096975;28;20473;-62
2023/06/03 16:41:24;;;;;;;3.70;1.67;;;;;;;;;;5095422;28;20478;-63
2023/06/03 16:43:51;;;;;;;1.50;1.10;;;;;;;;;;5101817;28;20508;-64
2023/06/03 16:46:17;;;;;;;2.10;1.10;;;;;;;;;;5096046;28;20584;-64
2023/06/03 16:48:45;;;;;;;2.23;1.20;;;;;;;;;;5092059;28;20452;-63
2023/06/03 16:51:11;;;;;;;2.97;1.30;;;;;;;;;;5096307;28;20501;-64
2023/06/03 16:53:37;;;;;;;1.93;1.30;;;;;;;;;;5103453;28;20526;-64
2023/06/03 16:56:05;;;;;;;2.00;1.20;;;;;;;;;;5089455;28;20454;-63
2023/06/03 16:58:31;;;;;;;2.60;1.27;;;;;;;;;;5097814;28;20443;-63
2023/06/03 17:00:58;;;;;;;41.53;27.93;;;;;;;;;;5085643;28;20460;-63
2023/06/03 17:03:24;;;;;;;4.70;1.47;;;;;;;;;;5092958;28;20458;-64
2023/06/03 17:05:52;;;;;;;4.30;1.37;;;;;;;;;;5093123;28;20575;-62
2023/06/03 17:08:18;;;;;;;1.93;1.20;;;;;;;;;;5096155;28;20991;-62
2023/06/03 17:10:45;;;;;;;5.40;4.00;;;;;;;;;;5103429;28;20466;-62
2023/06/03 17:13:11;;;;;;;2.83;1.10;;;;;;;;;;5102082;28;20529;-62
2023/06/03 17:15:38;;;;;;;0.90;0.70;;;;;;;;;;5092705;28;20534;-62
2023/06/03 17:18:04;;;;;;;1.60;1.20;;;;;;;;;;5091263;28;20499;-62
2023/06/03 17:20:31;;;;;;;1.87;1.13;;;;;;;;;;5094214;28;20524;-63
2023/06/03 17:22:58;;;;;;;2.30;1.20;;;;;;;;;;5099642;28;20483;-63
2023/06/03 17:25:25;;;;;;;2.70;2.43;;;;;;;;;;5099990;28;20511;-63
2023/06/03 17:27:52;;;;;;;1.83;1.20;;;;;;;;;;5100056;28;20461;-63
2023/06/03 17:30:18;;;;;;;1.80;1.33;;;;;;;;;;5101775;28;20474;-65
2023/06/03 17:32:45;;;;;;;1.80;1.10;;;;;;;;;;5101181;28;20984;-63
2023/06/03 17:35:11;;;;;;;2.30;1.30;;;;;;;;;;5099692;28;20451;-65
2023/06/03 17:37:38;;;;;;;1.37;0.80;;;;;;;;;;5101901;28;20447;-64
2023/06/03 17:40:06;;;;;;;1.90;1.10;;;;;;;;;;5102574;28;20472;-66
2023/06/03 17:42:33;;;;;;;2.87;1.30;;;;;;;;;;5095633;28;20452;-64
2023/06/03 17:44:59;;;;;;;1.33;1.03;;;;;;;;;;5100220;28;20514;-64
2023/06/03 17:47:25;;;;;;;1.33;0.97;;;;;;;;;;5096058;28;20455;-63
2023/06/03 17:49:52;;;;;;;1.67;0.97;;;;;;;;;;5098619;28;21007;-65
2023/06/03 17:52:18;;;;;;;5.33;1.10;;;;;;;;;;5095303;28;20459;-63
2023/06/03 17:54:45;;;;;;;1.80;1.53;;;;;;;;;;5100553;28;20455;-62
2023/06/03 17:57:14;;;;;;;2.13;1.20;;;;;;;;;;5094777;28;20443;-63
2023/06/03 17:59:41;;;;;;;1.50;1.30;;;;;;;;;;5096500;28;20479;-63
2023/06/03 18:02:07;;;;;;;1.50;1.00;;;;;;;;;;5090165;28;20915;-65
2023/06/03 18:04:34;;;;;;;1.30;1.20;;;;;;;;;;5100377;28;20456;-63
2023/06/03 18:07:00;;;;;;;3.97;1.13;;;;;;;;;;5092551;28;20571;-63
2023/06/03 18:09:27;;;;;;;3.20;1.17;;;;;;;;;;5098116;28;20520;-65
2023/06/03 18:11:53;;;;;;;1.73;1.00;;;;;;;;;;5098463;28;20494;-63
2023/06/03 18:14:21;;;;;;;3.33;1.30;;;;;;;;;;5101562;28;20523;-65
2023/06/03 18:16:47;;;;;;;3.87;1.40;;;;;;;;;;5090746;28;20456;-64
2023/06/03 18:19:13;;;;;;;1.47;1.20;;;;;;;;;;5084037;28;20535;-64
2023/06/03 18:21:41;;;;;;;1.50;1.10;;;;;;;;;;5093515;28;21346;-65
2023/06/03 18:24:07;;;;;;;2.03;1.03;;;;;;;;;;5096295;28;20538;-63
2023/06/03 18:26:34;;;;;;;2.40;1.20;;;;;;;;;;5093646;28;20518;-62
2023/06/03 18:29:00;;;;;;;1.60;1.30;;;;;;;;;;5100542;28;21253;-65
2023/06/03 18:31:28;;;;;;;1.87;1.33;;;;;;;;;;5101190;28;20473;-62
2023/06/03 18:33:54;;;;;;;1.77;1.13;;;;;;;;;;5098823;28;20483;-64
2023/06/03 18:36:21;;;;;;;1.83;1.30;;;;;;;;;;5099005;28;20460;-65
2023/06/03 18:38:47;;;;;;;1.80;1.20;;;;;;;;;;5091502;28;20558;-63
2023/06/03 18:41:13;;;;;;;1.90;1.17;;;;;;;;;;5094568;28;20542;-63
2023/06/03 18:43:41;;;;;;;1.70;1.10;;;;;;;;;;5092780;28;20474;-63
2023/06/03 18:46:07;;;;;;;2.43;1.43;;;;;;;;;;5100369;28;20521;-64
2023/06/03 18:48:35;;;;;;;2.07;1.00;;;;;;;;;;5099472;28;20486;-64
2023/06/03 18:51:01;;;;;;;1.33;1.03;;;;;;;;;;5099319;28;20538;-62
2023/06/03 18:53:28;;;;;;;2.03;1.20;;;;;;;;;;5097591;28;20898;-64
2023/06/03 18:55:54;;;;;;;4.30;1.03;;;;;;;;;;5093987;28;20447;-64
2023/06/03 18:58:21;;;;;;;1.37;1.10;;;;;;;;;;5095498;28;20959;-63
2023/06/03 19:00:47;;;;;;;3.50;0.97;;;;;;;;;;5101189;28;20483;-65
2023/06/03 19:03:15;;;;;;;2.23;1.40;;;;;;;;;;5101422;28;20528;-65
2023/06/03 19:05:43;;;;;;;2.03;1.57;;;;;;;;;;5097551;28;20516;-65
2023/06/03 19:08:09;;;;;;;2.80;1.40;;;;;;;;;;5096460;28;20530;-64
2023/06/03 19:10:36;;;;;;;1.30;1.20;;;;;;;;;;5088798;28;20515;-64
2023/06/03 19:13:03;;;;;;;1.90;1.30;;;;;;;;;;5101057;28;20481;-64
2023/06/03 19:15:30;;;;;;;2.53;1.60;;;;;;;;;;5084768;28;20455;-65
2023/06/03 19:17:57;;;;;;;2.40;1.40;;;;;;;;;;5086667;28;20911;-63
2023/06/03 19:20:24;;;;;;;2.30;1.20;;;;;;;;;;5099579;28;20929;-64
2023/06/03 19:22:52;;;;;;;2.77;1.60;;;;;;;;;;5094510;28;20510;-63
2023/06/03 19:25:19;;;;;;;2.30;1.60;;;;;;;;;;5094008;28;20491;-64
2023/06/03 19:27:45;;;;;;;2.50;1.87;;;;;;;;;;5086980;28;20467;-63
2023/06/03 19:30:12;;;;;;;2.63;1.87;;;;;;;;;;5097146;28;20470;-64
2023/06/03 19:32:42;;;;;;;3.40;2.43;;;;;;;;;;5093632;28;20486;-64
2023/06/03 19:35:08;;;;;;;5.40;3.13;;;;;;;;;;5095513;28;20481;-65
2023/06/03 19:37:34;;;;;;;4.03;1.80;;;;;;;;;;5098203;28;20485;-66
2023/06/03 19:40:02;;;;;;;3.20;2.33;;;;;;;;;;5093510;28;20444;-64
2023/06/03 19:42:29;;;;;;;3.50;2.97;;;;;;;;;;5093056;28;20479;-63
2023/06/03 19:44:56;;;;;;;2.60;2.20;;;;;;;;;;5092965;28;20502;-65
2023/06/03 19:47:22;;;;;;;4.53;1.70;;;;;;;;;;5095827;28;20494;-63
2023/06/03 19:49:49;;;;;;;1.83;1.63;;;;;;;;;;5095704;28;20496;-64
2023/06/03 19:52:16;;;;;;;2.17;1.77;;;;;;;;;;5097861;28;20439;-65
2023/06/03 19:54:42;;;;;;;5.37;2.10;;;;;;;;;;5087715;28;20456;-64
2023/06/03 19:57:10;;;;;;;2.33;1.90;;;;;;;;;;5086070;28;20467;-65
2023/06/03 19:59:36;;;;;;;2.53;2.00;;;;;;;;;;5097522;28;20478;-65
2023/06/03 20:02:03;;;;;;;3.30;2.10;;;;;;;;;;5090625;28;20459;-65
2023/06/03 20:04:30;;;;;;;3.27;1.87;;;;;;;;;;5087367;28;20484;-63
2023/06/03 20:06:56;;;;;;;2.40;1.90;;;;;;;;;;5099347;28;20478;-65
2023/06/03 20:09:22;;;;;;;6.03;1.70;;;;;;;;;;5101149;28;20447;-65
2023/06/03 20:11:49;;;;;;;2.60;1.63;;;;;;;;;;5099770;28;20790;-63
2023/06/03 20:14:18;;;;;;;2.87;2.20;;;;;;;;;;5090226;28;20472;-63
2023/06/03 20:16:45;;;;;;;3.33;2.10;;;;;;;;;;5089044;28;20481;-63
2023/06/03 20:19:11;;;;;;;2.80;2.07;;;;;;;;;;5103806;28;20446;-62
2023/06/03 20:21:38;;;;;;;4.27;2.10;;;;;;;;;;5103697;28;20478;-63
2023/06/03 20:24:05;;;;;;;3.43;2.43;;;;;;;;;;5100653;28;20523;-64
2023/06/03 20:26:31;;;;;;;3.43;1.83;;;;;;;;;;5102922;28;20517;-64
2023/06/03 20:28:58;;;;;;;2.60;2.00;;;;;;;;;;5098295;28;20991;-63
2023/06/03 20:31:26;;;;;;;3.40;2.00;;;;;;;;;;5085111;28;20514;-65
2023/06/03 20:33:53;;;;;;;2.87;1.80;;;;;;;;;;5090430;28;20450;-61
2023/06/03 20:36:22;;;;;;;2.70;1.97;;;;;;;;;;5095940;28;20451;-65
2023/06/03 20:38:48;;;;;;;3.50;2.03;;;;;;;;;;5099658;28;20446;-64
2023/06/03 20:41:15;;;;;;;3.03;2.07;;;;;;;;;;5097059;28;21065;-64
2023/06/03 20:43:41;;;;;;;2.60;2.13;;;;;;;;;;5095832;28;20533;-64
2023/06/03 20:46:08;;;;;;;7.20;2.03;;;;;;;;;;5103142;28;20514;-64
2023/06/03 20:48:35;;;;;;;3.13;2.00;;;;;;;;;;5092967;28;20523;-64
2023/06/03 20:51:02;;;;;;;5.40;2.63;;;;;;;;;;5100711;28;20789;-66
2023/06/03 20:53:28;;;;;;;4.67;2.20;;;;;;;;;;5101814;28;20478;-64
2023/06/03 20:55:55;;;;;;;7.40;2.60;;;;;;;;;;5100556;28;20477;-65
2023/06/03 20:58:21;;;;;;;4.00;2.30;;;;;;;;;;5094447;28;20504;-64
2023/06/03 21:00:47;;;;;;;5.83;2.23;;;;;;;;;;5097944;28;20490;-64
2023/06/03 21:03:14;;;;;;;4.90;2.93;;;;;;;;;;5094325;28;20714;-65
2023/06/03 21:05:42;;;;;;;6.50;2.47;;;;;;;;;;5085279;28;20878;-65
2023/06/03 21:08:08;;;;;;;3.10;2.30;;;;;;;;;;5101729;28;20522;-63
2023/06/03 21:10:35;;;;;;;2.70;2.03;;;;;;;;;;5096103;28;20485;-63
2023/06/03 21:13:01;;;;;;;3.53;2.27;;;;;;;;;;5097090;28;20516;-64
2023/06/03 21:15:28;;;;;;;4.23;2.20;;;;;;;;;;5100519;28;20530;-64
2023/06/03 21:17:54;;;;;;;3.30;2.40;;;;;;;;;;5103154;28;20538;-63
2023/06/03 21:20:21;;;;;;;3.30;2.33;;;;;;;;;;5103374;28;20455;-66
2023/06/03 21:22:49;;;;;;;5.27;3.20;;;;;;;;;;5098246;28;20479;-62
2023/06/03 21:25:15;;;;;;;5.80;2.60;;;;;;;;;;5094397;28;20519;-64
2023/06/03 21:27:42;;;;;;;4.93;2.40;;;;;;;;;;5102068;28;20586;-62
2023/06/03 21:30:09;;;;;;;2.67;2.17;;;;;;;;;;5098854;28;20451;-62
2023/06/03 21:32:36;;;;;;;2.73;2.17;;;;;;;;;;5103010;28;20477;-65
2023/06/03 21:35:02;;;;;;;2.33;2.00;;;;;;;;;;5102482;28;20435;-63
2023/06/03 21:37:28;;;;;;;2.90;2.13;;;;;;;;;;5099288;28;20466;-65
2023/06/03 21:39:56;;;;;;;2.57;2.20;;;;;;;;;;5087507;28;20526;-61
2023/06/03 21:42:23;;;;;;;6.40;2.40;;;;;;;;;;5089910;28;20531;-62
2023/06/03 21:44:49;;;;;;;6.13;2.87;;;;;;;;;;5092256;28;20785;-62
2023/06/03 21:47:15;;;;;;;3.67;2.53;;;;;;;;;;5098325;28;20934;-61
2023/06/03 21:49:42;;;;;;;5.40;3.10;;;;;;;;;;5100456;28;20475;-62
2023/06/03 21:52:08;;;;;;;5.70;2.90;;;;;;;;;;5099829;28;20525;-64
2023/06/03 21:54:42;;;;;;;2.80;2.43;;;;;;;;;;5101006;28;20486;-62
2023/06/03 21:57:12;;;;;;;4.37;2.70;;;;;;;;;;5096390;28;20960;-62
2023/06/03 21:59:39;;;;;;;4.60;3.33;;;;;;;;;;5100346;28;20512;-62
2023/06/03 22:02:05;;;;;;;4.33;3.13;;;;;;;;;;5097217;28;20521;-62
2023/06/03 22:04:32;;;;;;;6.20;3.10;;;;;;;;;;5087473;28;20506;-62
2023/06/03 22:06:58;;;;;;;4.93;3.40;;;;;;;;;;5094804;28;20510;-62
2023/06/03 22:09:25;;;;;;;4.63;3.57;;;;;;;;;;5097899;28;20507;-62
2023/06/03 22:11:51;;;;;;;6.57;3.87;;;;;;;;;;5099200;28;20455;-63
2023/06/03 22:14:19;;;;;;;4.00;3.20;;;;;;;;;;5102163;28;20461;-62
2023/06/03 22:16:45;;;;;;;6.00;3.20;;;;;;;;;;5093116;28;20471;-62
2023/06/03 22:19:11;;;;;;;3.90;3.40;;;;;;;;;;5097665;28;20511;-62
2023/06/03 22:21:38;;;;;;;7.67;4.23;;;;;;;;;;5086453;28;20474;-61
2023/06/03 22:24:05;;;;;;;5.00;3.63;;;;;;;;;;5098513;28;20501;-61
2023/06/03 22:26:31;;;;;;;5.20;3.73;;;;;;;;;;5094762;28;20535;-61
2023/06/03 22:28:58;;;;;;;7.07;3.77;;;;;;;;;;5097434;28;20471;-62
2023/06/03 22:31:27;;;;;;;4.33;3.20;;;;;;;;;;5097095;28;20941;-63
2023/06/03 22:33:53;;;;;;;5.17;3.70;;;;;;;;;;5095486;28;20475;-65
2023/06/03 22:36:20;;;;;;;5.23;3.23;;;;;;;;;;5097727;28;20490;-65
2023/06/03 22:38:46;;;;;;;5.57;3.43;;;;;;;;;;5089264;28;20472;-65
2023/06/03 22:41:13;;;;;;;7.13;4.33;;;;;;;;;;5082217;28;20472;-64
2023/06/03 22:43:39;;;;;;;4.83;3.83;;;;;;;;;;5084264;28;20495;-64
2023/06/03 22:46:05;;;;;;;4.77;3.67;;;;;;;;;;5098106;28;20451;-64
2023/06/03 22:48:33;;;;;;;3.73;3.20;;;;;;;;;;5098274;28;20510;-63
2023/06/03 22:51:00;;;;;;;5.47;3.50;;;;;;;;;;5085701;28;20507;-63
2023/06/03 22:53:26;;;;;;;5.40;3.93;;;;;;;;;;5088630;28;20463;-64
2023/06/03 22:55:52;;;;;;;3.93;3.20;;;;;;;;;;5093520;28;20455;-63
2023/06/03 22:58:19;;;;;;;4.43;3.03;;;;;;;;;;5087515;28;20911;-64
2023/06/03 23:00:45;;;;;;;5.87;3.30;;;;;;;;;;5081421;28;20479;-63
2023/06/03 23:03:12;;;;;;;3.97;2.60;;;;;;;;;;5090321;28;20486;-63
2023/06/03 23:05:39;;;;;;;4.00;3.23;;;;;;;;;;5095939;28;20439;-63